Time;durP1;ratioP1;P1;durP2;ratioP2;P2;SDS_P1;SDS_P2;PMS_P1;PMS_P2;Temp;Humidity;BMP_temperature;BMP_pressure;BME280_temperature;BME280_humidity;BME280_pressure;Samples;Min_cycle;Max_cycle;Signal;HPM_P1;HPM_P2
2021/11/14 00:00:01;;;;;;;21.63;11.60;;;;;;;5.82;100.00;99289.09;5000150;28;20332;-62
2021/11/14 00:02:26;;;;;;;154.40;16.60;;;;;;;5.80;100.00;99294.63;5004474;28;20558;-63
2021/11/14 00:04:52;;;;;;;19.88;13.10;;;;;;;5.79;100.00;99289.50;5003778;28;20076;-63
2021/11/14 00:07:17;;;;;;;24.15;14.23;;;;;;;5.71;100.00;99298.53;5004496;28;20041;-62
2021/11/14 00:09:44;;;;;;;24.77;13.68;;;;;;;5.67;100.00;99294.66;4999725;28;20030;-64
2021/11/14 00:12:10;;;;;;;20.05;12.85;;;;;;;5.67;100.00;99299.97;5022657;28;20056;-62
2021/11/14 00:14:35;;;;;;;22.27;11.82;;;;;;;5.67;100.00;99296.50;5004664;28;20045;-62
2021/11/14 00:17:01;;;;;;;19.75;11.52;;;;;;;5.73;100.00;99291.16;5004187;28;20053;-62
2021/11/14 00:19:26;;;;;;;16.25;11.25;;;;;;;5.67;100.00;99294.66;5003804;28;20046;-64
2021/11/14 00:21:52;;;;;;;20.30;13.30;;;;;;;5.63;100.00;99293.44;5002757;28;20898;-63
2021/11/14 00:24:17;;;;;;;15.02;10.93;;;;;;;5.66;100.00;99294.88;5003952;28;20034;-62
2021/11/14 00:26:43;;;;;;;17.02;11.02;;;;;;;5.66;100.00;99300.19;4999039;28;20097;-63
2021/11/14 00:29:09;;;;;;;20.27;12.48;;;;;;;5.66;100.00;99293.00;4999134;28;20057;-62
2021/11/14 00:31:35;;;;;;;16.88;11.88;;;;;;;5.72;100.00;99294.84;4996722;28;20046;-62
2021/11/14 00:34:01;;;;;;;16.00;10.13;;;;;;;5.70;100.00;99293.44;4999028;28;20550;-61
2021/11/14 00:36:29;;;;;;;14.75;10.50;;;;;;;5.74;100.00;99298.13;4993265;28;20649;-62
2021/11/14 00:38:55;;;;;;;17.65;11.55;;;;;;;5.78;100.00;99296.66;4998775;28;20019;-62
2021/11/14 00:41:21;;;;;;;17.13;10.70;;;;;;;5.87;100.00;99299.94;4997836;28;20053;-63
2021/11/14 00:43:46;;;;;;;15.57;10.13;;;;;;;5.81;100.00;99298.09;5000490;28;20045;-62
2021/11/14 00:46:12;;;;;;;14.93;9.88;;;;;;;5.80;100.00;99307.09;5002836;28;20712;-62
2021/11/14 00:48:41;;;;;;;13.27;9.20;;;;;;;5.73;100.00;99299.13;5003945;28;20112;-62
2021/11/14 00:51:10;;;;;;;21.73;9.23;;;;;;;5.70;100.00;99304.06;4996344;28;20104;-61
2021/11/14 00:53:36;;;;;;;14.23;8.80;;;;;;;5.67;100.00;99305.31;5002579;28;20287;-62
2021/11/14 00:56:01;;;;;;;15.57;10.15;;;;;;;5.69;100.00;99303.25;4997776;28;20572;-62
2021/11/14 00:58:27;;;;;;;14.90;10.10;;;;;;;5.73;100.00;99308.97;5003543;28;20041;-62
2021/11/14 01:00:54;;;;;;;13.65;9.30;;;;;;;5.70;100.00;99306.72;5002644;28;20045;-62
2021/11/14 01:03:19;;;;;;;16.05;9.65;;;;;;;5.70;100.00;99304.88;4996794;28;20038;-62
2021/11/14 01:05:45;;;;;;;15.48;9.40;;;;;;;5.69;100.00;99308.56;4987777;28;20390;-62
2021/11/14 01:08:10;;;;;;;14.77;9.68;;;;;;;5.64;100.00;99319.00;4999735;28;20022;-62
2021/11/14 01:10:39;;;;;;;18.45;9.70;;;;;;;5.59;100.00;99313.47;5003805;28;20677;-62
2021/11/14 01:13:04;;;;;;;17.50;10.20;;;;;;;5.56;100.00;99314.72;4999360;28;20866;-63
2021/11/14 01:15:30;;;;;;;18.35;10.27;;;;;;;5.56;100.00;99319.22;4993238;28;20038;-62
2021/11/14 01:17:55;;;;;;;14.55;9.55;;;;;;;5.54;100.00;99323.91;5003845;28;20030;-62
2021/11/14 01:20:30;;;;;;;18.35;10.90;;;;;;;5.52;100.00;99320.69;5001953;28;20073;-62
2021/11/14 01:22:56;;;;;;;16.55;10.73;;;;;;;5.50;100.00;99325.38;4996737;28;20018;-62
2021/11/14 01:25:22;;;;;;;15.90;10.18;;;;;;;5.52;100.00;99326.00;4999750;28;20046;-62
2021/11/14 01:27:47;;;;;;;17.48;11.00;;;;;;;5.58;100.00;99318.00;5002993;28;20033;-63
2021/11/14 01:30:15;;;;;;;30.90;14.52;;;;;;;5.56;100.00;99329.84;4996135;28;20030;-62
2021/11/14 01:32:41;;;;;;;20.98;11.30;;;;;;;5.60;100.00;99341.72;5001658;28;20607;-62
2021/11/14 01:35:07;;;;;;;19.92;11.20;;;;;;;5.60;100.00;99344.38;4999326;28;20631;-62
2021/11/14 01:37:32;;;;;;;19.70;11.43;;;;;;;5.59;100.00;99345.38;4998911;28;20480;-62
2021/11/14 01:39:58;;;;;;;19.95;11.43;;;;;;;5.60;100.00;99347.03;5006049;28;20026;-62
2021/11/14 01:42:23;;;;;;;23.30;11.65;;;;;;;5.56;100.00;99348.47;4999499;28;20037;-62
2021/11/14 01:44:49;;;;;;;21.25;11.88;;;;;;;5.51;100.00;99343.75;5003184;28;20042;-62
2021/11/14 01:47:14;;;;;;;20.80;11.82;;;;;;;5.55;100.00;99347.66;5006856;28;20034;-62
2021/11/14 01:49:40;;;;;;;18.55;10.57;;;;;;;5.55;100.00;99350.31;5004802;28;20318;-62
2021/11/14 01:52:06;;;;;;;22.73;11.82;;;;;;;5.56;100.00;99346.63;5005425;28;20037;-62
2021/11/14 01:54:31;;;;;;;20.23;11.25;;;;;;;5.56;100.00;99348.47;4994021;28;20044;-62
2021/11/14 01:56:57;;;;;;;20.25;11.57;;;;;;;5.53;100.00;99356.88;5004513;28;20041;-62
2021/11/14 01:59:22;;;;;;;24.70;11.95;;;;;;;5.53;100.00;99356.88;5007204;28;20404;-62
2021/11/14 02:01:48;;;;;;;21.45;11.90;;;;;;;5.53;100.00;99363.00;4998513;28;20488;-62
2021/11/14 02:04:13;;;;;;;22.45;12.27;;;;;;;5.53;100.00;99364.84;4986993;28;20033;-62
2021/11/14 02:06:40;;;;;;;30.35;13.07;;;;;;;5.53;100.00;99365.66;4996477;28;20081;-62
2021/11/14 02:09:07;;;;;;;27.70;13.07;;;;;;;5.48;100.00;99362.78;5002722;28;20663;-62
2021/11/14 02:11:32;;;;;;;26.42;13.27;;;;;;;5.51;100.00;99369.53;5001245;28;20134;-63
2021/11/14 02:13:58;;;;;;;23.45;11.88;;;;;;;5.50;100.00;99368.72;5005665;28;20030;-62
2021/11/14 02:16:25;;;;;;;26.90;14.02;;;;;;;5.46;100.00;99366.69;4995792;28;20065;-62
2021/11/14 02:18:50;;;;;;;32.55;14.20;;;;;;;5.46;100.00;99362.19;5000120;28;20463;-62
2021/11/14 02:21:16;;;;;;;21.83;12.68;;;;;;;5.50;100.00;99373.22;5005771;28;20035;-62
2021/11/14 02:23:42;;;;;;;27.42;12.32;;;;;;;5.48;100.00;99380.59;5002854;28;20121;-62
2021/11/14 02:26:07;;;;;;;24.90;11.73;;;;;;;5.45;100.00;99384.47;4999698;28;20076;-62
2021/11/14 02:28:33;;;;;;;28.70;13.93;;;;;;;5.45;100.00;99386.31;5006678;28;20037;-62
2021/11/14 02:30:58;;;;;;;26.30;12.73;;;;;;;5.49;100.00;99387.53;4994571;28;20042;-62
2021/11/14 02:33:26;;;;;;;22.15;12.10;;;;;;;5.47;100.00;99400.22;5006302;28;20026;-62
2021/11/14 02:35:53;;;;;;;27.88;13.70;;;;;;;5.48;100.00;99397.34;5006025;28;20506;-62
2021/11/14 02:38:20;;;;;;;20.30;11.15;;;;;;;5.47;100.00;99400.22;5000434;28;20396;-62
2021/11/14 02:40:46;;;;;;;19.58;11.20;;;;;;;5.52;100.00;99397.78;4999338;28;20065;-62
2021/11/14 02:43:12;;;;;;;19.83;11.65;;;;;;;5.48;100.00;99396.53;5001628;28;20022;-62
2021/11/14 02:45:37;;;;;;;19.65;11.13;;;;;;;5.52;100.00;99395.13;5002566;28;20129;-62
2021/11/14 02:48:04;;;;;;;22.25;11.90;;;;;;;5.46;100.00;99393.25;4992325;28;20483;-62
2021/11/14 02:50:30;;;;;;;22.67;12.25;;;;;;;5.46;100.00;99404.72;5002476;28;20492;-62
2021/11/14 02:52:55;;;;;;;22.70;12.68;;;;;;;5.50;100.00;99402.47;5003697;28;20030;-62
2021/11/14 02:55:22;;;;;;;21.38;12.45;;;;;;;5.49;100.00;99404.31;5005532;28;20052;-62
2021/11/14 02:57:48;;;;;;;24.50;12.27;;;;;;;5.54;100.00;99406.34;4999882;28;20014;-62
2021/11/14 03:00:22;;;;;;;24.98;12.90;;;;;;;5.49;100.00;99406.97;4999342;28;20402;-62
2021/11/14 03:02:47;;;;;;;28.35;13.85;;;;;;;5.44;100.00;99403.28;5005180;28;20025;-62
2021/11/14 03:05:14;;;;;;;25.00;12.95;;;;;;;5.40;100.00;99401.03;5004508;28;20072;-62
2021/11/14 03:07:40;;;;;;;28.50;14.27;;;;;;;5.45;100.00;99416.38;5005655;28;20018;-62
2021/11/14 03:10:06;;;;;;;26.27;13.88;;;;;;;5.50;100.00;99410.44;5001542;28;20026;-62
2021/11/14 03:12:32;;;;;;;26.60;14.05;;;;;;;5.44;100.00;99413.91;5002004;28;20343;-62
2021/11/14 03:14:58;;;;;;;23.85;13.85;;;;;;;5.52;100.00;99425.19;5003371;28;20026;-62
2021/11/14 03:17:23;;;;;;;29.33;14.77;;;;;;;5.55;100.00;99415.97;5004733;28;20037;-62
2021/11/14 03:19:49;;;;;;;31.60;16.38;;;;;;;5.43;100.00;99421.06;5004281;28;20118;-62
2021/11/14 03:22:14;;;;;;;26.00;14.32;;;;;;;5.41;100.00;99423.94;5000653;28;20105;-62
2021/11/14 03:24:40;;;;;;;28.67;14.50;;;;;;;5.34;100.00;99420.47;5001070;28;20567;-62
2021/11/14 03:27:05;;;;;;;33.58;15.57;;;;;;;5.39;100.00;99419.84;4994382;28;20047;-62
2021/11/14 03:29:31;;;;;;;26.92;14.02;;;;;;;5.32;100.00;99419.84;5005337;28;20026;-62
2021/11/14 03:31:57;;;;;;;29.20;14.73;;;;;;;5.39;100.00;99415.38;5003404;28;20445;-62
2021/11/14 03:34:22;;;;;;;29.10;14.13;;;;;;;5.41;100.00;99426.59;5000956;28;20034;-62
2021/11/14 03:36:47;;;;;;;27.65;15.05;;;;;;;5.42;100.00;99427.44;4995491;28;20456;-62
2021/11/14 03:39:13;;;;;;;31.48;14.82;;;;;;;5.45;100.00;99434.19;4993294;28;20026;-62
2021/11/14 03:41:39;;;;;;;28.00;13.98;;;;;;;5.46;100.00;99430.47;5004251;28;20093;-62
2021/11/14 03:44:05;;;;;;;26.13;13.88;;;;;;;5.45;100.00;99434.19;5001593;28;20109;-62
2021/11/14 03:46:30;;;;;;;27.83;14.20;;;;;;;5.49;100.00;99430.91;4999401;28;20488;-63
2021/11/14 03:48:56;;;;;;;25.75;13.75;;;;;;;5.50;100.00;99426.41;5003525;28;20048;-62
2021/11/14 03:51:21;;;;;;;25.23;14.55;;;;;;;5.43;100.00;99436.22;4994787;28;20050;-62
2021/11/14 03:53:47;;;;;;;28.83;14.77;;;;;;;5.45;100.00;99431.50;5005194;28;20318;-62
2021/11/14 03:56:13;;;;;;;25.58;14.48;;;;;;;5.55;100.00;99431.94;5004203;28;20057;-62
2021/11/14 03:58:38;;;;;;;26.50;13.98;;;;;;;5.58;100.00;99442.16;4998731;28;20026;-62
2021/11/14 04:01:06;;;;;;;29.08;15.93;;;;;;;5.60;100.00;99448.09;5004628;28;20058;-62
2021/11/14 04:03:32;;;;;;;31.90;16.65;;;;;;;5.58;100.00;99444.81;4997016;28;20145;-62
2021/11/14 04:05:57;;;;;;;28.88;15.27;;;;;;;5.60;100.00;99453.41;4993388;28;20145;-62
2021/11/14 04:08:24;;;;;;;27.48;15.57;;;;;;;5.57;100.00;99453.81;4986734;28;20120;-62
2021/11/14 04:10:50;;;;;;;27.83;15.70;;;;;;;5.59;100.00;99459.72;5004145;28;20076;-62
2021/11/14 04:13:16;;;;;;;27.33;14.35;;;;;;;5.58;100.00;99461.56;5000892;28;20026;-62
2021/11/14 04:15:41;;;;;;;31.27;14.77;;;;;;;5.53;100.00;99468.53;4999431;28;20111;-62
2021/11/14 04:18:07;;;;;;;27.45;14.82;;;;;;;5.59;100.00;99459.72;5000074;28;20497;-62
2021/11/14 04:20:33;;;;;;;26.95;14.25;;;;;;;5.54;100.00;99465.69;5000222;28;20046;-62
2021/11/14 04:22:59;;;;;;;26.45;14.88;;;;;;;5.47;100.00;99467.50;5000364;28;20153;-62
2021/11/14 04:25:25;;;;;;;26.65;14.48;;;;;;;5.49;100.00;99464.63;5004133;28;20050;-62
2021/11/14 04:27:50;;;;;;;28.10;14.70;;;;;;;5.50;100.00;99471.59;5004421;28;20099;-62
2021/11/14 04:30:16;;;;;;;25.15;13.65;;;;;;;5.46;100.00;99467.69;5002828;28;20092;-62
2021/11/14 04:32:41;;;;;;;33.33;15.57;;;;;;;5.41;100.00;99469.13;5001615;28;20455;-62
2021/11/14 04:35:07;;;;;;;34.03;15.27;;;;;;;5.47;100.00;99466.69;4996089;28;20492;-62
2021/11/14 04:37:33;;;;;;;30.17;16.05;;;;;;;5.46;100.00;99468.50;5002567;28;20026;-61
2021/11/14 04:39:58;;;;;;;27.02;14.55;;;;;;;5.50;100.00;99479.56;4997581;28;20515;-62
2021/11/14 04:42:24;;;;;;;28.30;14.50;;;;;;;5.49;100.00;99461.97;4995753;28;20041;-62
2021/11/14 04:44:49;;;;;;;26.88;14.48;;;;;;;5.45;100.00;99471.41;5000927;28;20257;-62
2021/11/14 04:47:15;;;;;;;26.00;14.35;;;;;;;5.45;100.00;99476.72;4990375;28;20048;-62
2021/11/14 04:49:41;;;;;;;30.27;15.93;;;;;;;5.41;100.00;99487.72;4996309;28;20045;-62
2021/11/14 04:52:07;;;;;;;29.20;14.90;;;;;;;5.50;100.00;99482.25;5002464;28;20041;-62
2021/11/14 04:54:32;;;;;;;32.10;15.55;;;;;;;5.51;100.00;99486.53;5001515;28;20470;-62
2021/11/14 04:56:58;;;;;;;27.70;14.75;;;;;;;5.49;100.00;99481.41;4992978;28;20034;-62
2021/11/14 04:59:23;;;;;;;29.58;14.93;;;;;;;5.47;100.00;99487.97;5000613;28;20041;-62
2021/11/14 05:01:49;;;;;;;25.45;14.48;;;;;;;5.47;100.00;99480.81;5002906;28;20132;-62
2021/11/14 05:04:15;;;;;;;29.20;14.98;;;;;;;5.49;100.00;99489.41;5003165;28;22027;-62
2021/11/14 05:06:40;;;;;;;27.02;14.23;;;;;;;5.49;100.00;99483.25;4999277;28;20060;-62
2021/11/14 05:09:05;;;;;;;31.58;15.32;;;;;;;5.44;100.00;99485.69;5004101;28;20018;-62
2021/11/14 05:11:31;;;;;;;31.27;15.57;;;;;;;5.39;100.00;99480.97;5000383;28;20641;-62
2021/11/14 05:13:56;;;;;;;28.10;14.90;;;;;;;5.37;100.00;99483.03;4995145;28;20037;-62
2021/11/14 05:16:22;;;;;;;33.35;16.00;;;;;;;5.34;100.00;99486.09;5001987;28;20496;-62
2021/11/14 05:18:47;;;;;;;29.75;14.80;;;;;;;5.38;100.00;99489.97;5003659;28;20487;-62
2021/11/14 05:21:12;;;;;;;28.73;14.30;;;;;;;5.38;100.00;99498.78;4997100;28;20053;-62
2021/11/14 05:23:38;;;;;;;26.40;14.88;;;;;;;5.36;100.00;99500.00;4996026;28;20030;-62
2021/11/14 05:26:04;;;;;;;28.77;15.65;;;;;;;5.36;100.00;99507.97;5002343;28;20315;-62
2021/11/14 05:28:29;;;;;;;25.98;15.15;;;;;;;5.37;100.00;99507.78;5002684;28;20178;-62
2021/11/14 05:30:55;;;;;;;27.05;14.15;;;;;;;5.37;100.00;99513.09;5002924;28;20077;-62
2021/11/14 05:33:20;;;;;;;30.27;15.23;;;;;;;5.35;100.00;99509.81;5001855;28;20030;-62
2021/11/14 05:35:46;;;;;;;26.63;13.40;;;;;;;5.35;100.00;99509.81;4998675;28;20049;-62
2021/11/14 05:38:11;;;;;;;24.95;13.68;;;;;;;5.37;100.00;99518.41;5001051;28;20030;-62
2021/11/14 05:40:36;;;;;;;21.17;13.40;;;;;;;5.32;100.00;99520.03;4998762;28;20576;-62
2021/11/14 05:43:02;;;;;;;23.73;13.88;;;;;;;5.32;100.00;99520.84;5002095;28;20031;-62
2021/11/14 05:45:27;;;;;;;25.45;13.85;;;;;;;5.29;100.00;99520.41;4999639;28;20042;-62
2021/11/14 05:47:53;;;;;;;23.77;14.23;;;;;;;5.31;100.00;99524.50;4999914;28;20076;-62
2021/11/14 05:50:18;;;;;;;27.92;14.50;;;;;;;5.35;100.00;99525.75;4997080;28;20034;-62
2021/11/14 05:52:43;;;;;;;28.67;13.90;;;;;;;5.38;100.00;99527.19;4994740;28;20045;-62
2021/11/14 05:55:09;;;;;;;27.00;13.90;;;;;;;5.38;100.00;99530.66;4991977;28;20073;-62
2021/11/14 05:57:47;;;;;;;23.65;13.93;;;;;;;5.38;100.00;99541.31;4998126;28;20030;-62
2021/11/14 06:00:18;;;;;;;26.52;15.50;;;;;;;5.44;100.00;99546.84;5002093;28;20552;-62
2021/11/14 06:02:58;;;;;;;26.23;14.30;;;;;;;5.46;100.00;99552.78;4998686;28;20042;-62
2021/11/14 06:05:25;;;;;;;32.33;14.38;;;;;;;5.51;100.00;99555.66;4994080;28;20626;-62
2021/11/14 06:07:50;;;;;;;29.90;15.50;;;;;;;5.48;100.00;99550.75;4999364;28;20034;-62
2021/11/14 06:10:16;;;;;;;26.05;15.15;;;;;;;5.46;100.00;99560.75;4998973;28;20140;-62
2021/11/14 06:12:42;;;;;;;29.25;14.60;;;;;;;5.44;100.00;99560.13;4997759;28;20034;-62
2021/11/14 06:15:09;;;;;;;27.85;14.57;;;;;;;5.44;100.00;99560.94;4998078;28;20025;-62
2021/11/14 06:17:35;;;;;;;27.15;14.60;;;;;;;5.43;100.00;99569.13;4999434;28;20061;-62
2021/11/14 06:20:00;;;;;;;23.67;14.73;;;;;;;5.38;100.00;99567.06;4997951;28;20052;-63
2021/11/14 06:22:26;;;;;;;26.40;14.90;;;;;;;5.31;100.00;99580.31;4998549;28;20129;-62
2021/11/14 06:24:51;;;;;;;23.35;14.60;;;;;;;5.44;100.00;99578.72;4996800;28;20808;-62
2021/11/14 06:27:17;;;;;;;28.33;15.95;;;;;;;5.47;100.00;99584.50;5002338;28;20555;-61
2021/11/14 06:29:42;;;;;;;25.30;14.55;;;;;;;5.53;100.00;99594.31;5001209;28;20061;-62
2021/11/14 06:32:08;;;;;;;25.80;14.27;;;;;;;5.48;100.00;99609.22;5003416;28;20042;-62
2021/11/14 06:34:33;;;;;;;28.33;16.50;;;;;;;5.46;100.00;99604.09;5004462;28;20022;-62
2021/11/14 06:36:59;;;;;;;26.25;16.05;;;;;;;5.50;100.00;99612.50;5002953;28;20041;-62
2021/11/14 06:39:24;;;;;;;24.00;15.45;;;;;;;5.54;100.00;99613.72;5003168;28;20053;-62
2021/11/14 06:41:50;;;;;;;27.80;16.10;;;;;;;5.50;100.00;99612.50;5003807;28;20392;-62
2021/11/14 06:44:15;;;;;;;27.75;15.73;;;;;;;5.49;100.00;99617.00;5004707;28;20092;-62
2021/11/14 06:46:40;;;;;;;28.52;15.48;;;;;;;5.54;100.00;99622.56;5000400;28;20045;-62
2021/11/14 06:49:06;;;;;;;23.80;15.35;;;;;;;5.49;100.00;99624.16;5004216;28;20463;-65
2021/11/14 06:51:31;;;;;;;29.67;17.05;;;;;;;5.43;100.00;99630.28;4999467;28;20645;-62
2021/11/14 06:53:57;;;;;;;27.35;16.35;;;;;;;5.46;100.00;99624.56;4997173;28;20544;-62
2021/11/14 06:56:23;;;;;;;25.42;14.75;;;;;;;5.37;100.00;99635.38;5003415;28;20050;-62
2021/11/14 06:58:49;;;;;;;24.42;15.02;;;;;;;5.34;100.00;99640.25;5003379;28;20029;-62
2021/11/14 07:01:14;;;;;;;24.00;15.77;;;;;;;5.39;100.00;99643.97;4984343;28;20066;-62
2021/11/14 07:03:40;;;;;;;24.77;15.15;;;;;;;5.32;100.00;99648.44;5002864;28;20038;-62
2021/11/14 07:06:05;;;;;;;26.10;15.15;;;;;;;5.35;100.00;99648.03;5002340;28;20065;-62
2021/11/14 07:08:30;;;;;;;27.45;14.95;;;;;;;5.42;100.00;99661.34;4999879;28;20035;-62
2021/11/14 07:10:56;;;;;;;26.17;16.27;;;;;;;5.43;100.00;99656.84;4995595;28;20038;-62
2021/11/14 07:13:21;;;;;;;24.38;14.65;;;;;;;5.46;100.00;99661.78;5000102;28;20511;-62
2021/11/14 07:15:47;;;;;;;25.08;15.30;;;;;;;5.52;100.00;99663.66;4998064;28;20046;-63
2021/11/14 07:18:13;;;;;;;29.75;15.45;;;;;;;5.59;100.00;99667.13;5001894;28;20132;-62
2021/11/14 07:20:38;;;;;;;24.70;14.82;;;;;;;5.67;100.00;99669.63;5001321;28;20132;-62
2021/11/14 07:23:04;;;;;;;24.65;15.30;;;;;;;5.62;100.00;99666.75;5002438;28;20038;-63
2021/11/14 07:25:30;;;;;;;26.33;15.90;;;;;;;5.61;100.00;99673.06;5000757;28;20647;-64
2021/11/14 07:27:55;;;;;;;23.45;15.60;;;;;;;5.58;100.00;99679.63;5001417;28;20042;-63
2021/11/14 07:30:42;;;;;;;28.77;16.20;;;;;;;5.62;100.00;99685.38;5001300;28;20104;-63
2021/11/14 07:33:07;;;;;;;23.35;15.43;;;;;;;5.58;100.00;99684.13;5003843;28;20147;-63
2021/11/14 07:35:33;;;;;;;22.98;15.00;;;;;;;5.61;100.00;99689.84;4991317;28;20676;-63
2021/11/14 07:37:58;;;;;;;22.73;14.98;;;;;;;5.58;100.00;99694.75;4996533;28;20030;-63
2021/11/14 07:40:26;;;;;;;27.13;16.02;;;;;;;5.61;100.00;99697.00;4998810;28;20046;-63
2021/11/14 07:42:52;;;;;;;21.20;14.23;;;;;;;5.62;100.00;99701.31;5001070;28;20656;-63
2021/11/14 07:45:20;;;;;;;22.10;14.98;;;;;;;5.64;100.00;99709.91;5000747;28;20492;-63
2021/11/14 07:47:46;;;;;;;40.63;21.33;;;;;;;5.71;100.00;99708.09;5001247;28;20044;-63
2021/11/14 07:50:12;;;;;;;31.95;18.33;;;;;;;5.73;100.00;99711.38;4998742;28;20026;-63
2021/11/14 07:52:38;;;;;;;32.63;18.63;;;;;;;5.79;100.00;99710.59;5005046;28;20483;-63
2021/11/14 07:55:06;;;;;;;33.22;18.75;;;;;;;5.85;100.00;99706.31;4994166;28;20033;-63
2021/11/14 07:57:32;;;;;;;25.90;16.08;;;;;;;5.97;100.00;99711.91;5002733;28;20029;-63
2021/11/14 07:59:57;;;;;;;22.08;14.40;;;;;;;6.02;100.00;99715.59;5005113;28;20507;-63
2021/11/14 08:02:22;;;;;;;22.88;14.27;;;;;;;6.07;100.00;99715.00;5000256;28;20046;-62
2021/11/14 08:04:48;;;;;;;20.92;14.23;;;;;;;6.04;100.00;99712.72;4993417;28;20428;-63
2021/11/14 08:07:13;;;;;;;22.40;16.38;;;;;;;6.12;100.00;99717.06;4996830;28;20539;-59
2021/11/14 08:09:39;;;;;;;23.77;15.75;;;;;;;6.19;100.00;99717.88;4999651;28;20037;-69
2021/11/14 08:12:05;;;;;;;21.15;14.18;;;;;;;6.22;100.00;99726.28;4996093;28;20651;-62
2021/11/14 08:14:30;;;;;;;22.70;15.98;;;;;;;6.15;100.00;99727.31;4993927;28;20146;-60
2021/11/14 08:16:55;;;;;;;19.95;14.50;;;;;;;6.21;100.00;99729.97;4997000;28;20034;-68
2021/11/14 08:19:21;;;;;;;20.88;15.30;;;;;;;6.29;100.00;99725.47;5002345;28;20034;-60
2021/11/14 08:21:46;;;;;;;22.38;15.15;;;;;;;6.33;100.00;99721.41;5000636;28;20057;-59
2021/11/14 08:24:12;;;;;;;23.00;16.52;;;;;;;6.32;100.00;99723.25;5000360;28;20041;-61
2021/11/14 08:26:37;;;;;;;22.35;15.90;;;;;;;6.36;100.00;99723.66;4987037;28;20054;-59
2021/11/14 08:29:03;;;;;;;19.08;13.52;;;;;;;6.38;100.00;99730.41;4996810;28;20053;-59
2021/11/14 08:31:28;;;;;;;19.63;14.15;;;;;;;6.33;100.00;99730.19;5004048;28;20057;-60
2021/11/14 08:33:55;;;;;;;22.58;14.85;;;;;;;6.44;100.00;99731.44;5004914;28;20029;-60
2021/11/14 08:36:20;;;;;;;19.67;14.55;;;;;;;6.48;100.00;99738.00;5000448;28;20066;-60
2021/11/14 08:38:46;;;;;;;20.10;13.98;;;;;;;6.44;100.00;99732.28;5002175;28;20030;-61
2021/11/14 08:41:11;;;;;;;18.10;12.80;;;;;;;6.53;100.00;99738.22;5001292;28;20050;-61
2021/11/14 08:43:38;;;;;;;19.75;12.90;;;;;;;6.63;100.00;99740.47;5000715;28;20034;-61
2021/11/14 08:46:05;;;;;;;18.27;12.55;;;;;;;6.69;100.00;99751.16;4995227;28;20030;-61
2021/11/14 08:48:31;;;;;;;18.63;13.55;;;;;;;6.74;100.00;99753.19;5002276;28;20499;-61
2021/11/14 08:50:56;;;;;;;22.50;14.77;;;;;;;6.93;99.98;99753.41;4993993;28;20038;-61
2021/11/14 08:53:22;;;;;;;18.67;13.65;;;;;;;6.95;99.12;99751.34;4993838;28;20065;-61
2021/11/14 08:55:47;;;;;;;19.25;14.10;;;;;;;7.22;98.04;99750.28;4999873;28;20103;-61
2021/11/14 08:58:13;;;;;;;17.17;12.85;;;;;;;7.15;98.17;99759.31;5003309;28;20042;-61
2021/11/14 09:00:38;;;;;;;19.88;13.70;;;;;;;7.51;97.06;99757.00;5002455;28;20057;-62
2021/11/14 09:03:05;;;;;;;17.52;13.40;;;;;;;7.40;96.32;99757.63;5004088;28;20030;-61
2021/11/14 09:05:31;;;;;;;16.80;12.50;;;;;;;7.50;95.56;99766.03;4999916;28;20038;-61
2021/11/14 09:08:00;;;;;;;17.65;12.30;;;;;;;7.59;95.60;99765.78;5001433;28;20026;-62
2021/11/14 09:10:26;;;;;;;16.75;13.13;;;;;;;7.56;95.14;99767.03;4986204;28;20515;-61
2021/11/14 09:12:51;;;;;;;17.70;13.93;;;;;;;7.41;95.78;99775.25;4998378;28;20038;-60
2021/11/14 09:15:18;;;;;;;16.50;12.63;;;;;;;7.23;95.44;99777.78;5003830;28;20026;-62
2021/11/14 09:17:44;;;;;;;17.48;12.93;;;;;;;7.22;96.56;99786.81;4999598;28;20037;-60
2021/11/14 09:20:10;;;;;;;16.30;11.90;;;;;;;7.12;96.15;99785.38;4997527;28;20121;-60
2021/11/14 09:22:36;;;;;;;18.33;13.10;;;;;;;7.05;96.71;99787.22;5001942;28;20030;-60
2021/11/14 09:25:03;;;;;;;15.25;10.82;;;;;;;7.05;96.62;99792.53;4997670;28;20042;-59
2021/11/14 09:27:28;;;;;;;18.15;13.20;;;;;;;7.24;95.99;99798.91;5001996;28;20041;-60
2021/11/14 09:29:54;;;;;;;19.50;15.15;;;;;;;7.24;96.97;99790.06;4994144;28;20026;-61
2021/11/14 09:32:20;;;;;;;16.52;13.00;;;;;;;7.16;96.04;99798.28;4997044;28;20053;-61
2021/11/14 09:34:45;;;;;;;18.40;14.32;;;;;;;7.30;96.41;99802.56;5002894;28;20500;-61
2021/11/14 09:37:10;;;;;;;19.13;13.10;;;;;;;7.45;95.24;99794.34;5002263;28;20049;-61
2021/11/14 09:39:36;;;;;;;19.95;13.65;;;;;;;7.48;94.83;99796.59;4998540;28;20481;-61
2021/11/14 09:42:02;;;;;;;21.48;15.85;;;;;;;7.76;94.19;99798.97;4994044;28;20065;-61
2021/11/14 09:44:27;;;;;;;18.80;13.48;;;;;;;7.52;93.58;99798.66;4998297;28;20030;-61
2021/11/14 09:46:54;;;;;;;25.00;14.73;;;;;;;7.69;95.16;99799.03;4996648;28;20045;-61
2021/11/14 09:49:21;;;;;;;23.48;14.15;;;;;;;7.51;94.20;99797.03;5000205;28;20029;-60
2021/11/14 09:51:48;;;;;;;21.15;14.82;;;;;;;7.38;95.08;99809.53;4997688;28;20069;-60
2021/11/14 09:54:13;;;;;;;18.38;13.68;;;;;;;7.38;94.65;99813.03;4999223;28;20484;-60
2021/11/14 09:56:39;;;;;;;17.67;12.20;;;;;;;7.42;94.62;99816.94;5001606;28;20041;-60
2021/11/14 09:59:04;;;;;;;18.23;13.32;;;;;;;7.30;95.34;99821.25;5003196;28;20113;-62
2021/11/14 10:01:30;;;;;;;20.35;15.00;;;;;;;7.37;96.83;99811.41;5005057;28;20116;-60
2021/11/14 10:03:55;;;;;;;20.13;14.95;;;;;;;7.55;95.92;99822.22;5003597;28;20053;-60
2021/11/14 10:06:21;;;;;;;25.05;16.98;;;;;;;7.51;94.47;99818.34;4997776;28;20041;-60
2021/11/14 10:08:47;;;;;;;22.63;15.73;;;;;;;7.51;95.32;99817.50;5005945;28;20100;-60
2021/11/14 10:11:13;;;;;;;22.08;13.95;;;;;;;7.56;94.45;99813.22;5004769;28;20057;-60
2021/11/14 10:13:39;;;;;;;39.67;25.13;;;;;;;7.53;95.48;99807.47;5002643;28;20501;-60
2021/11/14 10:16:12;;;;;;;20.48;15.05;;;;;;;7.54;93.76;99811.78;5001836;28;20037;-60
2021/11/14 10:18:39;;;;;;;14.77;12.02;;;;;;;7.50;94.13;99815.88;4999922;28;20038;-60
2021/11/14 10:21:04;;;;;;;18.40;13.30;;;;;;;7.45;93.64;99816.50;4994338;28;20137;-61
2021/11/14 10:23:32;;;;;;;20.15;13.02;;;;;;;7.44;93.06;99822.88;4996025;28;20652;-61
2021/11/14 10:25:58;;;;;;;24.35;15.55;;;;;;;7.44;93.63;99822.88;4997461;28;20061;-60
2021/11/14 10:28:27;;;;;;;19.77;14.07;;;;;;;7.44;93.67;99822.88;5004602;28;20136;-61
2021/11/14 10:30:53;;;;;;;19.73;14.25;;;;;;;7.59;94.63;99819.13;4999408;28;20041;-61
2021/11/14 10:33:18;;;;;;;26.55;18.75;;;;;;;7.56;95.35;99823.03;5002366;28;20077;-61
2021/11/14 10:35:49;;;;;;;19.90;14.52;;;;;;;7.63;94.81;99815.03;4996069;28;20073;-61
2021/11/14 10:38:19;;;;;;;18.73;13.95;;;;;;;7.59;94.90;99819.97;5006014;28;20116;-61
2021/11/14 10:40:46;;;;;;;;;;;;;;;7.64;95.60;99819.34;5001278;28;20038;-61
2021/11/14 10:43:11;;;;;;;21.52;14.02;;;;;;;7.71;94.61;99822.81;5003550;28;20012;-62
2021/11/14 10:45:41;;;;;;;21.88;15.93;;;;;;;7.78;94.33;99820.94;5003160;28;20129;-62
2021/11/14 10:48:08;;;;;;;26.10;18.50;;;;;;;7.73;94.29;99824.25;5001234;28;20468;-61
2021/11/14 10:50:35;;;;;;;27.08;19.83;;;;;;;7.76;94.76;99823.00;4999425;28;20081;-62
2021/11/14 10:53:06;;;;;;;21.02;15.57;;;;;;;7.79;94.60;99830.59;5001895;28;20560;-60
2021/11/14 10:55:40;;;;;;;17.70;12.43;;;;;;;7.78;94.79;99823.63;4995388;28;20501;-60
2021/11/14 10:58:05;;;;;;;21.92;15.63;;;;;;;7.75;94.37;99824.03;5004569;28;20041;-60
2021/11/14 11:00:31;;;;;;;23.25;16.58;;;;;;;7.83;94.38;99826.47;5003863;28;20053;-61
2021/11/14 11:02:56;;;;;;;21.67;15.85;;;;;;;7.71;94.81;99823.66;5001431;28;20641;-60
2021/11/14 11:05:25;;;;;;;19.42;14.90;;;;;;;7.87;94.53;99818.88;5001717;28;20045;-60
2021/11/14 11:08:00;;;;;;;19.92;13.73;;;;;;;7.86;94.21;99831.41;5002706;28;20042;-60
2021/11/14 11:10:32;;;;;;;21.48;14.55;;;;;;;7.65;94.59;99821.00;5002970;28;20493;-60
2021/11/14 11:12:59;;;;;;;19.45;13.52;;;;;;;7.76;95.32;99826.50;5003866;28;20040;-60